createdAt,value
2017-07-22T00:00:32.120Z,4.97
2017-07-22T00:03:01.415Z,4.60
2017-07-22T00:05:30.848Z,4.20
2017-07-22T00:08:00.301Z,4.20
2017-07-22T00:10:29.747Z,3.90
2017-07-22T00:12:59.181Z,4.47
2017-07-22T00:15:28.623Z,4.60
2017-07-22T00:17:58.065Z,4.00
2017-07-22T00:20:27.520Z,4.23
2017-07-22T00:22:57.014Z,3.97
2017-07-22T00:25:26.493Z,4.33
2017-07-22T00:27:55.926Z,4.17
2017-07-22T00:30:25.385Z,4.93
2017-07-22T00:32:54.840Z,4.23
2017-07-22T00:35:24.313Z,4.60
2017-07-22T00:37:53.760Z,4.50
2017-07-22T00:40:23.229Z,4.77
2017-07-22T00:42:52.505Z,4.80
2017-07-22T00:45:22.000Z,4.40
2017-07-22T00:47:51.441Z,5.03
2017-07-22T00:50:20.956Z,4.93
2017-07-22T00:52:50.516Z,5.67
2017-07-22T00:55:20.038Z,4.57
2017-07-22T00:57:49.539Z,5.23
2017-07-22T01:00:18.993Z,5.40
2017-07-22T01:02:48.257Z,5.43
2017-07-22T01:05:17.741Z,4.87
2017-07-22T01:07:47.171Z,5.10
2017-07-22T01:10:16.669Z,5.40
2017-07-22T01:12:46.098Z,5.10
2017-07-22T01:15:15.584Z,5.20
2017-07-22T01:17:44.973Z,5.10
2017-07-22T01:20:14.455Z,5.40
2017-07-22T01:22:43.715Z,4.67
2017-07-22T01:25:13.210Z,5.27
2017-07-22T01:27:42.640Z,5.50
2017-07-22T01:30:12.121Z,5.83
2017-07-22T01:32:41.568Z,5.17
2017-07-22T01:35:11.075Z,5.40
2017-07-22T01:37:40.515Z,5.47
2017-07-22T01:40:09.984Z,5.27
2017-07-22T01:42:39.446Z,4.83
2017-07-22T01:45:08.931Z,4.90
2017-07-22T01:47:38.381Z,4.87
2017-07-22T01:50:07.864Z,4.77
2017-07-22T01:52:37.296Z,5.70
2017-07-22T01:55:06.798Z,5.20
2017-07-22T01:57:36.416Z,5.47
2017-07-22T02:00:05.883Z,5.67
2017-07-22T02:02:35.143Z,4.87
2017-07-22T02:05:04.620Z,5.80
2017-07-22T02:07:34.069Z,5.70
2017-07-22T02:10:03.599Z,5.87
2017-07-22T02:12:33.072Z,5.63
2017-07-22T02:15:02.538Z,5.73
2017-07-22T02:17:31.976Z,5.40
2017-07-22T02:20:01.438Z,5.73
2017-07-22T02:22:30.704Z,5.80
2017-07-22T02:25:00.162Z,6.03
2017-07-22T02:27:29.612Z,6.23
2017-07-22T02:29:59.055Z,5.67
2017-07-22T02:32:28.496Z,6.73
2017-07-22T02:34:57.937Z,5.23
2017-07-22T02:37:27.392Z,7.70
2017-07-22T02:39:56.836Z,6.40
2017-07-22T02:42:26.291Z,6.17
2017-07-22T02:44:55.745Z,7.07
2017-07-22T02:47:25.168Z,6.13
2017-07-22T02:49:54.635Z,6.33
2017-07-22T02:52:24.061Z,6.27
2017-07-22T02:54:53.516Z,6.90
2017-07-22T02:57:22.965Z,6.30
2017-07-22T02:59:52.409Z,6.67
2017-07-22T03:02:21.861Z,6.73
2017-07-22T03:04:51.332Z,7.83
2017-07-22T03:07:20.764Z,7.00
2017-07-22T03:09:50.200Z,7.13
2017-07-22T03:12:19.663Z,7.30
2017-07-22T03:14:49.167Z,7.60
2017-07-22T03:17:18.616Z,7.17
2017-07-22T03:19:48.054Z,6.40
2017-07-22T03:22:17.554Z,7.03
2017-07-22T03:24:47.014Z,7.03
2017-07-22T03:27:16.454Z,6.93
2017-07-22T03:29:45.892Z,6.87
2017-07-22T03:32:15.353Z,6.93
2017-07-22T03:34:44.805Z,6.47
2017-07-22T03:37:14.255Z,6.27
2017-07-22T03:39:43.774Z,7.20
2017-07-22T03:42:13.224Z,6.30
2017-07-22T03:44:42.685Z,5.90
2017-07-22T03:47:12.136Z,6.73
2017-07-22T03:49:41.607Z,5.93
2017-07-22T03:52:11.050Z,6.57
2017-07-22T03:54:40.525Z,6.07
2017-07-22T03:57:09.969Z,7.03
2017-07-22T03:59:39.409Z,6.10
2017-07-22T04:02:08.696Z,6.43
2017-07-22T04:04:38.184Z,6.50
2017-07-22T04:07:07.624Z,6.60
2017-07-22T04:09:37.070Z,6.70
2017-07-22T04:12:06.511Z,6.43
2017-07-22T04:14:35.868Z,5.93
2017-07-22T04:17:05.299Z,6.00
2017-07-22T04:19:34.584Z,5.13
2017-07-22T04:22:04.022Z,5.43
2017-07-22T04:24:33.487Z,5.73
2017-07-22T04:27:02.920Z,5.67
2017-07-22T04:29:32.390Z,5.50
2017-07-22T04:32:01.854Z,6.20
2017-07-22T04:34:31.300Z,6.70
2017-07-22T04:37:00.601Z,7.10
2017-07-22T04:39:30.068Z,5.43
2017-07-22T04:41:59.524Z,5.33
2017-07-22T04:44:29.123Z,5.13
2017-07-22T04:46:58.569Z,4.90
2017-07-22T04:49:28.029Z,4.60
2017-07-22T04:51:57.474Z,5.63
2017-07-22T04:54:27.078Z,4.27
2017-07-22T04:56:56.527Z,3.83
2017-07-22T04:59:26.679Z,4.43
2017-07-22T05:01:56.128Z,5.50
2017-07-22T05:04:25.654Z,4.50
2017-07-22T05:06:55.082Z,4.33
2017-07-22T05:09:24.541Z,4.53
2017-07-22T05:11:53.990Z,3.93
2017-07-22T05:14:23.440Z,4.50
2017-07-22T05:16:52.900Z,4.90
2017-07-22T05:19:22.344Z,4.33
2017-07-22T05:21:51.804Z,4.90
2017-07-22T05:24:21.248Z,4.73
2017-07-22T05:26:50.708Z,4.50
2017-07-22T05:29:20.137Z,4.40
2017-07-22T05:31:49.577Z,4.13
2017-07-22T05:34:19.028Z,3.97
2017-07-22T05:36:48.472Z,5.10
2017-07-22T05:39:17.937Z,4.17
2017-07-22T05:41:47.373Z,4.40
2017-07-22T05:44:16.804Z,4.40
2017-07-22T05:46:47.149Z,4.23
2017-07-22T05:49:16.585Z,4.13
2017-07-22T05:51:46.023Z,5.10
2017-07-22T05:54:15.647Z,4.80
2017-07-22T05:56:45.097Z,4.50
2017-07-22T05:59:14.540Z,4.50
2017-07-22T06:01:44.009Z,5.03
2017-07-22T06:04:13.466Z,4.40
2017-07-22T06:06:43.673Z,4.73
2017-07-22T06:09:13.118Z,4.83
2017-07-22T06:11:42.557Z,4.30
2017-07-22T06:14:11.996Z,4.50
2017-07-22T06:16:41.432Z,4.27
2017-07-22T06:19:11.012Z,4.10
2017-07-22T06:21:40.453Z,3.83
2017-07-22T06:24:09.909Z,4.40
2017-07-22T06:26:39.351Z,4.23
2017-07-22T06:29:08.798Z,4.10
2017-07-22T06:31:38.241Z,3.77
2017-07-22T06:34:07.675Z,4.50
2017-07-22T06:36:37.156Z,4.50
2017-07-22T06:39:06.606Z,4.20
2017-07-22T06:41:36.032Z,3.67
2017-07-22T06:44:05.481Z,3.67
2017-07-22T06:46:36.605Z,4.50
2017-07-22T06:49:06.052Z,4.83
2017-07-22T06:51:35.486Z,4.13
2017-07-22T06:54:04.930Z,4.00
2017-07-22T06:56:34.382Z,3.67
2017-07-22T06:59:03.824Z,3.37
2017-07-22T07:01:33.263Z,3.80
2017-07-22T07:04:02.736Z,3.73
2017-07-22T07:06:32.180Z,4.50
2017-07-22T07:09:01.625Z,4.13
2017-07-22T07:11:30.900Z,3.97
2017-07-22T07:14:00.340Z,4.13
2017-07-22T07:16:29.804Z,3.57
2017-07-22T07:18:59.245Z,3.30
2017-07-22T07:21:28.697Z,4.13
2017-07-22T07:23:58.145Z,3.90
2017-07-22T07:26:27.586Z,3.03
2017-07-22T07:28:57.025Z,3.93
2017-07-22T07:31:26.492Z,4.00
2017-07-22T07:33:55.957Z,4.27
2017-07-22T07:36:25.408Z,4.70
2017-07-22T07:38:54.992Z,4.90
2017-07-22T07:41:24.440Z,4.10
2017-07-22T07:43:53.902Z,4.53
2017-07-22T07:46:23.349Z,4.40
2017-07-22T07:48:52.805Z,4.50
2017-07-22T07:51:22.237Z,4.70
2017-07-22T07:53:51.699Z,4.47
2017-07-22T07:56:21.169Z,5.10
2017-07-22T07:58:50.630Z,4.23
2017-07-22T08:01:20.076Z,4.70
2017-07-22T08:03:49.537Z,4.40
2017-07-22T08:06:18.986Z,4.80
2017-07-22T08:08:48.437Z,4.67
2017-07-22T08:11:17.883Z,5.27
2017-07-22T08:13:47.328Z,5.10
2017-07-22T08:16:16.795Z,4.40
2017-07-22T08:18:46.220Z,5.23
2017-07-22T08:21:15.670Z,4.40
2017-07-22T08:23:45.116Z,4.90
2017-07-22T08:26:14.567Z,4.57
2017-07-22T08:28:44.012Z,5.00
2017-07-22T08:31:13.460Z,4.37
2017-07-22T08:33:42.931Z,5.03
2017-07-22T08:36:12.373Z,4.27
2017-07-22T08:38:41.821Z,5.47
2017-07-22T08:41:11.300Z,5.13
2017-07-22T08:43:40.757Z,4.50
2017-07-22T08:46:10.209Z,5.63
2017-07-22T08:48:39.636Z,5.30
2017-07-22T08:51:09.093Z,4.97
2017-07-22T08:53:38.545Z,5.13
2017-07-22T08:56:07.978Z,5.53
2017-07-22T08:58:37.468Z,4.93
2017-07-22T09:01:06.924Z,5.47
2017-07-22T09:03:36.380Z,4.90
2017-07-22T09:06:05.840Z,5.40
2017-07-22T09:08:35.280Z,5.20
2017-07-22T09:11:04.732Z,5.70
2017-07-22T09:13:34.174Z,5.20
2017-07-22T09:16:03.601Z,4.33
2017-07-22T09:18:33.063Z,4.50
2017-07-22T09:21:02.488Z,4.70
2017-07-22T09:23:31.971Z,4.83
2017-07-22T09:26:01.427Z,5.57
2017-07-22T09:28:30.863Z,5.10
2017-07-22T09:31:00.316Z,5.40
2017-07-22T09:33:29.830Z,4.87
2017-07-22T09:35:59.269Z,4.67
2017-07-22T09:38:28.788Z,5.40
2017-07-22T09:40:58.236Z,5.37
2017-07-22T09:43:27.697Z,5.53
2017-07-22T09:45:57.150Z,5.40
2017-07-22T09:48:26.648Z,5.20
2017-07-22T09:50:56.097Z,4.90
2017-07-22T09:53:25.569Z,5.13
2017-07-22T09:55:55.001Z,4.90
2017-07-22T09:58:24.457Z,4.97
2017-07-22T10:00:53.893Z,4.57
2017-07-22T10:03:23.342Z,5.30
2017-07-22T10:05:52.773Z,5.10
2017-07-22T10:08:22.274Z,5.33
2017-07-22T10:10:51.738Z,5.40
2017-07-22T10:13:21.153Z,4.70
2017-07-22T10:15:50.600Z,5.50
2017-07-22T10:18:20.043Z,4.43
2017-07-22T10:20:49.492Z,4.73
2017-07-22T10:23:18.954Z,5.27
2017-07-22T10:25:48.390Z,5.53
2017-07-22T10:28:17.828Z,5.03
2017-07-22T10:30:47.275Z,4.57
2017-07-22T10:33:16.752Z,5.47
2017-07-22T10:35:46.183Z,5.50
2017-07-22T10:38:15.636Z,5.30
2017-07-22T10:40:45.082Z,5.40
2017-07-22T10:43:14.529Z,5.10
2017-07-22T10:45:43.800Z,5.23
2017-07-22T10:48:13.250Z,5.50
2017-07-22T10:50:42.677Z,4.73
2017-07-22T10:53:12.124Z,5.00
2017-07-22T10:55:41.580Z,4.80
2017-07-22T10:58:11.050Z,5.33
2017-07-22T11:00:40.480Z,7.80
2017-07-22T11:03:09.960Z,5.87
2017-07-22T11:05:39.419Z,5.10
2017-07-22T11:08:08.883Z,4.67
2017-07-22T11:10:38.322Z,4.67
2017-07-22T11:13:07.758Z,5.37
2017-07-22T11:15:37.214Z,5.60
2017-07-22T11:18:06.657Z,5.40
2017-07-22T11:20:36.099Z,5.20
2017-07-22T11:23:05.548Z,5.30
2017-07-22T11:25:34.980Z,6.30
2017-07-22T11:28:04.433Z,5.37
2017-07-22T11:30:34.002Z,5.20
2017-07-22T11:33:03.440Z,5.50
2017-07-22T11:35:32.911Z,5.60
2017-07-22T11:38:02.371Z,5.17
2017-07-22T11:40:31.807Z,5.53
2017-07-22T11:43:01.264Z,5.33
2017-07-22T11:45:30.697Z,4.77
2017-07-22T11:48:00.149Z,4.53
2017-07-22T11:50:29.644Z,4.50
2017-07-22T11:52:59.302Z,4.93
2017-07-22T11:55:28.740Z,4.97
2017-07-22T11:57:58.268Z,4.50
2017-07-22T12:00:27.726Z,4.43
2017-07-22T12:02:57.198Z,4.53
2017-07-22T12:05:26.683Z,4.60
2017-07-22T12:07:56.111Z,4.20
2017-07-22T12:10:25.554Z,4.10
2017-07-22T12:12:55.006Z,4.40
2017-07-22T12:15:24.444Z,4.40
2017-07-22T12:17:53.879Z,4.00
2017-07-22T12:20:23.368Z,4.20
2017-07-22T12:22:52.816Z,4.63
2017-07-22T12:25:22.324Z,4.37
2017-07-22T12:27:51.746Z,4.27
2017-07-22T12:30:21.247Z,4.93
2017-07-22T12:32:50.680Z,4.40
2017-07-22T12:35:20.250Z,4.30
2017-07-22T12:37:49.701Z,4.00
2017-07-22T12:40:19.224Z,4.80
2017-07-22T12:42:48.669Z,4.20
2017-07-22T12:45:18.147Z,3.53
2017-07-22T12:47:47.581Z,4.70
2017-07-22T12:50:17.068Z,4.43
2017-07-22T12:52:46.505Z,3.90
2017-07-22T12:55:15.978Z,3.80
2017-07-22T12:57:45.420Z,3.23
2017-07-22T13:00:14.906Z,4.00
2017-07-22T13:02:44.337Z,3.37
2017-07-22T13:05:13.818Z,3.20
2017-07-22T13:07:43.259Z,2.97
2017-07-22T13:10:12.803Z,3.40
2017-07-22T13:12:42.262Z,2.73
2017-07-22T13:15:11.846Z,3.00
2017-07-22T13:17:41.328Z,2.90
2017-07-22T13:20:10.840Z,2.70
2017-07-22T13:22:40.317Z,2.47
2017-07-22T13:25:09.772Z,3.00
2017-07-22T13:27:39.230Z,2.67
2017-07-22T13:30:09.324Z,2.20
2017-07-22T13:32:38.770Z,2.67
2017-07-22T13:35:08.269Z,2.50
2017-07-22T13:37:37.721Z,2.70
2017-07-22T13:40:07.330Z,2.47
2017-07-22T13:42:36.800Z,2.50
2017-07-22T13:45:06.285Z,2.80
2017-07-22T13:47:36.202Z,2.30
2017-07-22T13:50:05.716Z,2.33
2017-07-22T13:52:35.157Z,2.30
2017-07-22T13:55:04.642Z,2.00
2017-07-22T13:57:34.083Z,2.20
2017-07-22T14:00:03.605Z,2.40
2017-07-22T14:02:33.059Z,2.53
2017-07-22T14:05:02.549Z,2.40
2017-07-22T14:07:31.982Z,2.50
2017-07-22T14:10:01.453Z,2.50
2017-07-22T14:12:30.884Z,2.70
2017-07-22T14:15:00.333Z,2.30
2017-07-22T14:17:29.788Z,2.40
2017-07-22T14:19:59.219Z,2.37
2017-07-22T14:22:28.660Z,2.10
2017-07-22T14:24:58.165Z,1.97
2017-07-22T14:27:27.608Z,2.40
2017-07-22T14:29:57.111Z,2.20
2017-07-22T14:32:26.579Z,3.20
2017-07-22T14:34:56.061Z,2.33
2017-07-22T14:37:25.549Z,2.33
2017-07-22T14:39:54.987Z,2.07
2017-07-22T14:42:24.422Z,2.33
2017-07-22T14:44:53.914Z,2.40
2017-07-22T14:47:24.053Z,2.20
2017-07-22T14:49:53.569Z,2.20
2017-07-22T14:52:23.008Z,2.17
2017-07-22T14:54:52.460Z,2.47
2017-07-22T14:57:21.907Z,2.40
2017-07-22T14:59:51.381Z,2.10
2017-07-22T15:02:20.864Z,2.77
2017-07-22T15:04:50.320Z,1.90
2017-07-22T15:07:19.860Z,2.40
2017-07-22T15:09:49.517Z,2.43
2017-07-22T15:12:18.957Z,2.03
2017-07-22T15:14:48.396Z,2.40
2017-07-22T15:17:17.882Z,1.83
2017-07-22T15:19:47.329Z,2.30
2017-07-22T15:22:16.769Z,1.87
2017-07-22T15:24:46.205Z,2.07
2017-07-22T15:27:15.644Z,2.50
2017-07-22T15:29:45.110Z,1.90
2017-07-22T15:32:14.553Z,1.90
2017-07-22T15:34:43.984Z,2.10
2017-07-22T15:37:13.445Z,3.70
2017-07-22T15:39:42.895Z,2.03
2017-07-22T15:42:12.331Z,2.17
2017-07-22T15:44:41.822Z,2.60
2017-07-22T15:47:11.207Z,2.40
2017-07-22T15:49:40.469Z,2.17
2017-07-22T15:52:09.908Z,2.47
2017-07-22T15:54:39.367Z,2.03
2017-07-22T15:57:08.820Z,2.30
2017-07-22T15:59:38.262Z,2.60
2017-07-22T16:02:07.705Z,2.50
2017-07-22T16:04:37.160Z,2.30
2017-07-22T16:07:06.605Z,2.63
2017-07-22T16:09:36.073Z,3.10
2017-07-22T16:12:05.526Z,2.20
2017-07-22T16:14:34.966Z,2.20
2017-07-22T16:17:04.424Z,2.77
2017-07-22T16:19:33.853Z,2.57
2017-07-22T16:22:03.390Z,2.30
2017-07-22T16:24:32.922Z,2.80
2017-07-22T16:27:02.426Z,2.63
2017-07-22T16:29:31.881Z,2.20
2017-07-22T16:32:01.319Z,3.00
2017-07-22T16:34:30.768Z,2.77
2017-07-22T16:37:00.226Z,2.77
2017-07-22T16:39:29.677Z,2.93
2017-07-22T16:41:59.132Z,2.80
2017-07-22T16:44:28.564Z,3.20
2017-07-22T16:46:58.033Z,2.63
2017-07-22T16:49:27.464Z,2.40
2017-07-22T16:51:56.911Z,2.57
2017-07-22T16:54:26.353Z,2.67
2017-07-22T16:56:55.809Z,2.70
2017-07-22T16:59:26.083Z,2.70
2017-07-22T17:01:55.541Z,2.47
2017-07-22T17:04:24.992Z,2.90
2017-07-22T17:06:54.456Z,2.73
2017-07-22T17:09:23.888Z,3.30
2017-07-22T17:11:53.348Z,2.67
2017-07-22T17:14:22.804Z,3.13
2017-07-22T17:16:52.269Z,3.10
2017-07-22T17:19:21.702Z,2.83
2017-07-22T17:21:51.158Z,2.90
2017-07-22T17:24:20.594Z,3.10
2017-07-22T17:26:50.027Z,2.90
2017-07-22T17:29:19.484Z,3.00
2017-07-22T17:31:48.947Z,2.70
2017-07-22T17:34:18.380Z,2.70
2017-07-22T17:36:47.866Z,2.60
2017-07-22T17:39:17.312Z,2.70
2017-07-22T17:41:46.761Z,2.80
2017-07-22T17:44:16.205Z,2.60
2017-07-22T17:46:45.665Z,2.70
2017-07-22T17:49:15.091Z,2.97
2017-07-22T17:51:44.546Z,2.80
2017-07-22T17:54:13.999Z,3.13
2017-07-22T17:56:43.454Z,2.83
2017-07-22T17:59:12.912Z,3.10
2017-07-22T18:01:42.490Z,2.70
2017-07-22T18:04:11.957Z,2.37
2017-07-22T18:06:41.398Z,2.80
2017-07-22T18:09:10.838Z,2.87
2017-07-22T18:11:40.379Z,2.67
2017-07-22T18:14:09.815Z,3.10
2017-07-22T18:16:39.263Z,3.20
2017-07-22T18:19:08.730Z,3.27
2017-07-22T18:21:38.292Z,3.50
2017-07-22T18:24:07.728Z,3.47
2017-07-22T18:26:37.910Z,4.00
2017-07-22T18:29:08.268Z,3.60
2017-07-22T18:31:37.996Z,4.67
2017-07-22T18:34:09.057Z,5.33
2017-07-22T18:36:39.160Z,4.70
2017-07-22T18:39:09.284Z,4.43
2017-07-22T18:41:39.425Z,8.73
2017-07-22T18:44:09.655Z,7.30
2017-07-22T18:46:39.967Z,6.10
2017-07-22T18:49:10.147Z,3.80
2017-07-22T18:51:40.120Z,4.10
2017-07-22T18:54:08.981Z,4.00
2017-07-22T18:56:38.667Z,4.40
2017-07-22T18:59:12.865Z,6.50
2017-07-22T19:01:43.429Z,5.30
2017-07-22T19:04:12.877Z,4.80
2017-07-22T19:06:42.352Z,6.70
2017-07-22T19:09:12.232Z,5.27
2017-07-22T19:11:41.678Z,4.13
2017-07-22T19:14:11.470Z,4.37
2017-07-22T19:16:41.980Z,4.50
2017-07-22T19:19:11.401Z,4.10
2017-07-22T19:21:41.544Z,6.13
2017-07-22T19:24:11.106Z,5.87
2017-07-22T19:26:40.782Z,5.73
2017-07-22T19:29:10.438Z,6.00
2017-07-22T19:31:40.043Z,4.80
2017-07-22T19:34:09.708Z,5.70
2017-07-22T19:36:39.543Z,5.57
2017-07-22T19:39:09.355Z,4.17
2017-07-22T19:41:38.914Z,4.83
2017-07-22T19:44:08.880Z,5.00
2017-07-22T19:46:38.929Z,5.00
2017-07-22T19:49:09.450Z,5.53
2017-07-22T19:51:39.575Z,20.50
2017-07-22T19:54:09.072Z,6.87
2017-07-22T19:56:39.086Z,5.87
2017-07-22T19:59:08.696Z,10.77
2017-07-22T20:01:39.119Z,5.87
2017-07-22T20:04:08.563Z,5.87
2017-07-22T20:06:39.125Z,5.70
2017-07-22T20:09:08.845Z,5.53
2017-07-22T20:11:39.063Z,5.30
2017-07-22T20:14:08.803Z,4.80
2017-07-22T20:16:39.002Z,4.93
2017-07-22T20:19:08.699Z,6.43
2017-07-22T20:21:38.412Z,6.37
2017-07-22T20:24:08.182Z,5.20
2017-07-22T20:26:39.404Z,5.87
2017-07-22T20:29:09.427Z,5.77
2017-07-22T20:31:39.411Z,5.40
2017-07-22T20:34:09.069Z,5.60
2017-07-22T20:36:39.547Z,5.40
2017-07-22T20:39:09.279Z,5.20
2017-07-22T20:41:38.742Z,5.20
2017-07-22T20:44:08.595Z,5.77
2017-07-22T20:46:38.615Z,5.13
2017-07-22T20:49:08.045Z,6.90
2017-07-22T20:51:38.306Z,6.77
2017-07-22T20:54:08.358Z,6.00
2017-07-22T20:56:38.307Z,6.40
2017-07-22T20:59:08.005Z,6.70
2017-07-22T21:01:38.091Z,7.13
2017-07-22T21:04:08.021Z,6.13
2017-07-22T21:06:38.450Z,5.80
2017-07-22T21:09:08.711Z,9.50
2017-07-22T21:11:38.336Z,6.23
2017-07-22T21:14:08.074Z,5.57
2017-07-22T21:16:37.546Z,5.67
2017-07-22T21:19:09.254Z,5.77
2017-07-22T21:21:39.412Z,5.63
2017-07-22T21:24:09.661Z,6.77
2017-07-22T21:26:39.529Z,5.37
2017-07-22T21:29:09.607Z,5.47
2017-07-22T21:31:39.435Z,5.97
2017-07-22T21:34:09.619Z,7.43
2017-07-22T21:36:40.090Z,6.40
2017-07-22T21:39:10.312Z,6.93
2017-07-22T21:41:40.129Z,6.07
2017-07-22T21:44:09.811Z,7.33
2017-07-22T21:46:39.958Z,5.43
2017-07-22T21:49:09.961Z,5.30
2017-07-22T21:51:39.887Z,6.57
2017-07-22T21:54:09.534Z,7.77
2017-07-22T21:56:40.146Z,6.10
2017-07-22T21:59:09.889Z,8.33
2017-07-22T22:01:39.626Z,8.60
2017-07-22T22:04:09.217Z,6.67
2017-07-22T22:06:38.811Z,6.30
2017-07-22T22:09:08.688Z,6.50
2017-07-22T22:11:38.253Z,6.40
2017-07-22T22:14:07.695Z,6.90
2017-07-22T22:16:37.199Z,10.60
2017-07-22T22:19:06.728Z,10.40
2017-07-22T22:21:36.183Z,6.20
2017-07-22T22:24:05.636Z,7.10
2017-07-22T22:26:35.093Z,5.80
2017-07-22T22:29:04.557Z,4.63
2017-07-22T22:31:34.025Z,5.50
2017-07-22T22:34:03.456Z,8.70
2017-07-22T22:36:32.831Z,5.37
2017-07-22T22:39:02.261Z,5.63
2017-07-22T22:41:32.189Z,6.53
2017-07-22T22:44:01.633Z,7.50
2017-07-22T22:46:31.071Z,7.77
2017-07-22T22:49:00.589Z,7.50
2017-07-22T22:51:30.735Z,6.17
2017-07-22T22:54:00.158Z,5.30
2017-07-22T22:56:29.601Z,6.07
2017-07-22T22:58:59.048Z,6.20
2017-07-22T23:01:28.506Z,5.80
2017-07-22T23:03:57.937Z,6.97
2017-07-22T23:06:28.229Z,5.83
2017-07-22T23:08:57.669Z,6.00
2017-07-22T23:11:27.113Z,6.03
2017-07-22T23:13:56.389Z,7.43
2017-07-22T23:16:25.839Z,5.20
2017-07-22T23:18:55.347Z,5.37
2017-07-22T23:21:24.785Z,5.10
2017-07-22T23:23:54.230Z,5.40
2017-07-22T23:26:23.697Z,5.40
2017-07-22T23:28:53.142Z,5.87
2017-07-22T23:31:22.716Z,6.83
2017-07-22T23:33:52.151Z,6.83
2017-07-22T23:36:21.606Z,5.50
2017-07-22T23:38:51.056Z,6.43
2017-07-22T23:41:20.519Z,5.90
2017-07-22T23:43:49.957Z,6.53
2017-07-22T23:46:19.413Z,6.43
2017-07-22T23:48:48.841Z,5.53
2017-07-22T23:51:18.328Z,5.40
2017-07-22T23:53:47.773Z,5.30
2017-07-22T23:56:17.302Z,5.73
2017-07-22T23:58:46.740Z,5.20
